createdAt,value
2018-05-04T00:00:11.404Z,12.77
2018-05-04T00:02:40.215Z,10.53
2018-05-04T00:05:15.384Z,11.73
2018-05-04T00:07:50.136Z,11.55
2018-05-04T00:10:20.176Z,11.37
2018-05-04T00:12:51.007Z,11.20
2018-05-04T00:15:24.532Z,10.37
2018-05-04T00:17:53.331Z,12.68
2018-05-04T00:20:22.267Z,11.80
2018-05-04T00:22:51.310Z,11.30
2018-05-04T00:25:19.310Z,11.27
2018-05-04T00:27:47.335Z,10.50
2018-05-04T00:30:19.160Z,11.87
2018-05-04T00:32:51.835Z,10.63
2018-05-04T00:35:19.878Z,10.53
2018-05-04T00:37:57.978Z,11.68
2018-05-04T00:40:27.086Z,10.60
2018-05-04T00:42:59.909Z,11.38
2018-05-04T00:45:31.969Z,11.68
2018-05-04T00:48:02.703Z,11.70
2018-05-04T00:50:45.797Z,10.88
2018-05-04T00:53:19.811Z,10.98
2018-05-04T00:55:47.855Z,11.32
2018-05-04T00:58:15.886Z,11.98
2018-05-04T01:00:47.227Z,10.60
2018-05-04T01:03:16.271Z,10.93
2018-05-04T01:05:44.287Z,11.43
2018-05-04T01:08:14.086Z,10.00
2018-05-04T01:10:42.122Z,10.68
2018-05-04T01:13:14.427Z,11.68
2018-05-04T01:15:47.334Z,10.82
2018-05-04T01:18:16.155Z,11.07
2018-05-04T01:20:44.178Z,9.98
2018-05-04T01:23:13.015Z,11.98
2018-05-04T01:25:53.890Z,11.00
2018-05-04T01:28:34.479Z,11.35
2018-05-04T01:31:09.182Z,11.63
2018-05-04T01:33:41.395Z,9.95
2018-05-04T01:36:12.107Z,10.43
2018-05-04T01:38:47.238Z,10.13
2018-05-04T01:41:17.267Z,11.20
2018-05-04T01:43:46.274Z,10.15
2018-05-04T01:46:31.047Z,11.18
2018-05-04T01:49:09.876Z,9.93
2018-05-04T01:51:40.684Z,9.80
2018-05-04T01:54:09.711Z,10.05
2018-05-04T01:56:39.683Z,9.13
2018-05-04T01:59:14.230Z,11.65
2018-05-04T02:01:44.955Z,9.47
2018-05-04T02:04:15.682Z,11.00
2018-05-04T02:06:43.723Z,10.57
2018-05-04T02:09:13.679Z,9.18
2018-05-04T02:11:42.515Z,10.38
2018-05-04T02:14:12.554Z,9.40
2018-05-04T02:16:42.595Z,10.05
2018-05-04T02:19:13.399Z,10.77
2018-05-04T02:21:43.455Z,10.43
2018-05-04T02:24:12.271Z,10.40
2018-05-04T02:26:42.255Z,10.70
2018-05-04T02:29:24.154Z,9.82
2018-05-04T02:31:52.943Z,9.70
2018-05-04T02:34:27.367Z,10.13
2018-05-04T02:37:01.175Z,9.73
2018-05-04T02:39:30.167Z,10.18
2018-05-04T02:42:07.090Z,10.50
2018-05-04T02:44:36.122Z,9.77
2018-05-04T02:47:05.939Z,9.85
2018-05-04T02:49:37.710Z,9.05
2018-05-04T02:52:08.515Z,9.77
2018-05-04T02:54:40.324Z,10.98
2018-05-04T02:57:13.059Z,9.88
2018-05-04T02:59:41.098Z,10.05
2018-05-04T03:02:16.619Z,10.15
2018-05-04T03:04:49.063Z,9.38
2018-05-04T03:07:27.330Z,10.83
2018-05-04T03:09:56.440Z,8.70
2018-05-04T03:12:28.927Z,9.43
2018-05-04T03:15:00.823Z,10.33
2018-05-04T03:20:27.967Z,9.75
2018-05-04T03:23:04.311Z,9.80
2018-05-04T03:25:34.330Z,10.60
2018-05-04T03:28:26.056Z,9.13
2018-05-04T03:30:57.735Z,10.50
2018-05-04T03:33:25.766Z,10.93
2018-05-04T03:36:04.985Z,10.48
2018-05-04T03:38:46.562Z,10.63
2018-05-04T03:41:15.642Z,11.38
2018-05-04T03:43:50.934Z,10.90
2018-05-04T03:46:19.970Z,11.27
2018-05-04T03:48:48.914Z,11.45
2018-05-04T03:51:20.274Z,11.90
2018-05-04T03:53:56.402Z,10.82
2018-05-04T03:56:24.462Z,11.73
2018-05-04T03:59:12.034Z,11.88
2018-05-04T04:01:59.539Z,11.77
2018-05-04T04:04:34.262Z,11.80
2018-05-04T04:07:07.170Z,11.43
2018-05-04T04:09:46.878Z,12.10
2018-05-04T04:12:24.774Z,12.80
2018-05-04T04:14:52.817Z,12.00
2018-05-04T04:17:20.947Z,11.15
2018-05-04T04:19:50.875Z,10.98
2018-05-04T04:22:19.675Z,11.80
2018-05-04T04:24:47.718Z,11.85
2018-05-04T04:27:17.034Z,11.70
2018-05-04T04:29:45.819Z,10.63
2018-05-04T04:32:14.791Z,11.80
2018-05-04T04:34:44.831Z,11.93
2018-05-04T04:37:13.627Z,11.90
2018-05-04T04:39:44.338Z,11.68
2018-05-04T04:42:14.366Z,11.55
2018-05-04T04:44:48.151Z,12.10
2018-05-04T04:47:18.286Z,11.65
2018-05-04T04:50:06.082Z,12.10
2018-05-04T04:52:44.546Z,13.37
2018-05-04T04:55:20.058Z,12.60
2018-05-04T04:57:52.260Z,14.05
2018-05-04T05:00:22.040Z,13.57
2018-05-04T05:02:55.774Z,13.57
2018-05-04T05:05:24.734Z,14.17
2018-05-04T05:07:54.758Z,13.40
2018-05-04T05:10:22.810Z,13.35
2018-05-04T05:12:55.422Z,14.48
2018-05-04T05:15:30.901Z,14.73
2018-05-04T05:18:06.464Z,13.38
2018-05-04T05:20:35.511Z,14.10
2018-05-04T05:23:08.274Z,14.15
2018-05-04T05:25:39.922Z,14.13
2018-05-04T05:28:09.923Z,13.13
2018-05-04T05:30:46.083Z,13.07
2018-05-04T05:33:14.119Z,13.73
2018-05-04T05:35:42.277Z,13.00
2018-05-04T05:38:16.674Z,13.67
2018-05-04T05:40:46.674Z,13.57
2018-05-04T05:43:15.682Z,13.93
2018-05-04T05:45:44.658Z,12.90
2018-05-04T05:48:12.730Z,14.30
2018-05-04T05:50:45.114Z,12.17
2018-05-04T05:53:13.958Z,13.67
2018-05-04T05:55:44.246Z,13.53
2018-05-04T05:58:16.090Z,14.80
2018-05-04T06:00:48.870Z,13.60
2018-05-04T06:03:17.878Z,14.53
2018-05-04T06:06:07.182Z,14.10
2018-05-04T06:08:35.437Z,12.33
2018-05-04T06:14:06.046Z,12.80
2018-05-04T06:16:34.106Z,13.40
2018-05-04T06:19:04.126Z,14.87
2018-05-04T06:21:34.158Z,14.40
2018-05-04T06:24:02.187Z,14.23
2018-05-04T06:26:31.284Z,14.10
2018-05-04T06:29:09.491Z,13.90
2018-05-04T06:31:39.415Z,13.50
2018-05-04T06:34:07.465Z,13.63
2018-05-04T06:36:38.749Z,13.00
2018-05-04T06:39:06.766Z,14.17
2018-05-04T06:41:36.737Z,14.10
2018-05-04T06:44:19.094Z,12.27
2018-05-04T06:46:50.161Z,12.20
2018-05-04T06:49:24.014Z,13.10
2018-05-04T06:51:52.793Z,11.70
2018-05-04T06:54:20.810Z,12.07
2018-05-04T06:57:06.387Z,12.60
2018-05-04T06:59:34.389Z,12.43
2018-05-04T07:02:03.314Z,13.03
2018-05-04T07:04:46.358Z,13.07
2018-05-04T07:07:17.518Z,11.00
2018-05-04T07:09:50.257Z,11.60
2018-05-04T07:12:18.285Z,12.00
2018-05-04T07:14:47.189Z,11.70
2018-05-04T07:17:15.250Z,14.00
2018-05-04T07:19:48.937Z,12.93
2018-05-04T07:22:20.002Z,12.30
2018-05-04T07:24:53.763Z,11.67
2018-05-04T07:27:23.754Z,11.10
2018-05-04T07:29:56.462Z,12.17
2018-05-04T07:32:26.398Z,12.27
2018-05-04T07:34:59.190Z,12.50
2018-05-04T07:37:33.597Z,12.63
2018-05-04T07:40:06.599Z,12.27
2018-05-04T07:42:41.950Z,12.40
2018-05-04T07:45:10.926Z,11.70
2018-05-04T07:47:39.913Z,12.80
2018-05-04T07:50:07.953Z,13.33
2018-05-04T07:52:41.998Z,12.10
2018-05-04T07:55:11.091Z,12.50
2018-05-04T07:57:39.998Z,12.43
2018-05-04T08:00:10.002Z,10.87
2018-05-04T08:02:45.341Z,10.90
2018-05-04T08:05:15.621Z,12.27
2018-05-04T08:07:44.590Z,12.17
2018-05-04T08:10:16.617Z,13.23
2018-05-04T08:12:45.570Z,14.20
2018-05-04T08:15:14.497Z,13.53
2018-05-04T08:17:43.489Z,14.40
2018-05-04T08:20:11.739Z,12.33
2018-05-04T08:22:45.277Z,13.50
2018-05-04T08:25:17.153Z,11.87
2018-05-04T08:27:47.865Z,12.77
2018-05-04T08:30:20.636Z,13.13
2018-05-04T08:32:49.649Z,11.70
2018-05-04T08:35:19.293Z,11.03
2018-05-04T08:37:47.221Z,12.30
2018-05-04T08:40:16.133Z,11.20
2018-05-04T08:42:44.913Z,12.50
2018-05-04T08:45:17.273Z,12.00
2018-05-04T08:47:45.289Z,11.67
2018-05-04T08:50:17.921Z,11.33
2018-05-04T08:52:46.409Z,12.03
2018-05-04T08:55:18.449Z,12.43
2018-05-04T08:57:46.576Z,11.17
2018-05-04T09:00:25.725Z,10.73
2018-05-04T09:02:56.665Z,10.60
2018-05-04T09:05:25.791Z,11.03
2018-05-04T09:07:53.713Z,10.20
2018-05-04T09:10:22.645Z,11.20
2018-05-04T09:12:50.735Z,10.53
2018-05-04T09:15:18.790Z,11.70
2018-05-04T09:17:48.606Z,10.90
2018-05-04T09:20:20.570Z,10.23
2018-05-04T09:22:52.721Z,10.47
2018-05-04T09:25:21.692Z,10.37
2018-05-04T09:27:49.601Z,8.73
2018-05-04T09:30:25.017Z,9.73
2018-05-04T09:33:12.117Z,10.60
2018-05-04T09:35:40.121Z,9.80
2018-05-04T09:38:09.085Z,9.80
2018-05-04T09:40:37.997Z,9.70
2018-05-04T09:43:09.861Z,9.77
2018-05-04T09:45:37.965Z,10.07
2018-05-04T09:48:07.645Z,11.63
2018-05-04T09:50:35.705Z,10.53
2018-05-04T09:53:04.141Z,10.13
2018-05-04T09:55:33.060Z,10.53
2018-05-04T09:58:03.001Z,10.17
2018-05-04T10:00:34.634Z,10.27
2018-05-04T10:03:02.649Z,10.07
2018-05-04T10:05:35.189Z,10.23
2018-05-04T10:08:05.185Z,9.87
2018-05-04T10:10:33.209Z,11.23
2018-05-04T10:13:04.971Z,10.17
2018-05-04T10:15:48.489Z,10.63
2018-05-04T10:18:17.288Z,9.57
2018-05-04T10:20:46.061Z,9.53
2018-05-04T10:23:14.961Z,10.43
2018-05-04T10:25:43.961Z,10.73
2018-05-04T10:28:13.720Z,10.10
2018-05-04T10:30:43.649Z,10.00
2018-05-04T10:33:16.428Z,9.80
2018-05-04T10:35:48.957Z,9.17
2018-05-04T10:38:22.919Z,9.30
2018-05-04T10:40:50.924Z,8.80
2018-05-04T10:43:23.285Z,10.10
2018-05-04T10:45:51.256Z,10.00
2018-05-04T10:48:27.567Z,8.87
2018-05-04T10:50:55.571Z,9.87
2018-05-04T10:53:28.437Z,9.23
2018-05-04T10:56:04.868Z,9.60
2018-05-04T10:58:32.892Z,7.73
2018-05-04T11:01:00.910Z,7.83
2018-05-04T11:03:29.809Z,9.57
2018-05-04T11:05:59.768Z,8.27
2018-05-04T11:08:32.309Z,8.83
2018-05-04T11:11:00.328Z,8.00
2018-05-04T11:13:29.112Z,9.10
2018-05-04T11:15:58.997Z,8.40
2018-05-04T11:18:31.068Z,7.80
2018-05-04T11:20:59.124Z,8.17
2018-05-04T11:23:28.120Z,7.40
2018-05-04T11:25:57.121Z,7.17
2018-05-04T11:28:26.089Z,7.07
2018-05-04T11:30:54.201Z,7.57
2018-05-04T11:33:22.140Z,8.20
2018-05-04T11:35:54.208Z,8.20
2018-05-04T11:38:22.236Z,6.87
2018-05-04T11:40:53.844Z,6.37
2018-05-04T11:43:21.856Z,6.87
2018-05-04T11:45:50.794Z,6.93
2018-05-04T11:48:22.252Z,7.03
2018-05-04T11:50:50.271Z,7.40
2018-05-04T11:53:20.172Z,7.20
2018-05-04T11:55:49.147Z,7.27
2018-05-04T11:58:19.057Z,7.30
2018-05-04T12:00:47.903Z,7.10
2018-05-04T12:03:19.692Z,7.13
2018-05-04T12:05:48.632Z,6.17
2018-05-04T12:08:17.560Z,7.40
2018-05-04T12:10:46.658Z,7.13
2018-05-04T12:13:26.064Z,8.20
2018-05-04T12:15:55.121Z,7.57
2018-05-04T12:18:24.908Z,7.10
2018-05-04T12:20:59.300Z,6.00
2018-05-04T12:23:27.300Z,6.40
2018-05-04T12:25:55.356Z,6.90
2018-05-04T12:28:23.368Z,7.10
2018-05-04T12:30:52.315Z,7.30
2018-05-04T12:33:24.776Z,7.13
2018-05-04T12:35:53.540Z,7.37
2018-05-04T12:38:22.460Z,6.90
2018-05-04T12:40:51.376Z,7.97
2018-05-04T12:43:23.516Z,7.70
2018-05-04T12:45:51.536Z,7.10
2018-05-04T12:48:19.560Z,7.40
2018-05-04T12:50:49.475Z,6.57
2018-05-04T12:53:22.321Z,5.93
2018-05-04T12:55:51.311Z,7.07
2018-05-04T12:58:19.304Z,6.93
2018-05-04T13:00:49.251Z,7.37
2018-05-04T13:03:18.224Z,7.83
2018-05-04T13:05:48.239Z,6.30
2018-05-04T13:08:19.516Z,6.50
2018-05-04T13:10:52.232Z,7.20
2018-05-04T13:13:23.832Z,6.43
2018-05-04T13:16:02.300Z,5.90
2018-05-04T13:18:31.191Z,7.40
2018-05-04T13:21:01.152Z,6.27
2018-05-04T13:23:34.849Z,6.13
2018-05-04T13:26:06.636Z,6.83
2018-05-04T13:28:36.623Z,6.93
2018-05-04T13:31:08.068Z,7.93
2018-05-04T13:33:37.087Z,7.00
2018-05-04T13:36:06.160Z,6.50
2018-05-04T13:38:38.833Z,6.73
2018-05-04T13:41:06.840Z,6.63
2018-05-04T13:43:39.175Z,6.80
2018-05-04T13:46:07.187Z,7.20
2018-05-04T13:48:35.964Z,6.60
2018-05-04T13:51:04.772Z,7.20
2018-05-04T13:53:45.719Z,7.40
2018-05-04T13:56:14.511Z,6.23
2018-05-04T13:58:43.287Z,6.07
2018-05-04T14:01:11.332Z,5.50
2018-05-04T14:03:39.331Z,5.90
2018-05-04T14:06:07.483Z,5.40
2018-05-04T14:08:37.541Z,5.10
2018-05-04T14:11:13.225Z,6.30
2018-05-04T14:13:44.512Z,6.00
2018-05-04T14:16:17.265Z,5.70
2018-05-04T14:18:51.075Z,6.00
2018-05-04T14:21:24.791Z,6.20
2018-05-04T14:23:53.791Z,6.23
2018-05-04T14:26:21.798Z,5.30
2018-05-04T14:28:51.498Z,5.90
2018-05-04T14:31:20.281Z,6.57
2018-05-04T14:33:49.047Z,6.23
2018-05-04T14:36:21.199Z,6.00
2018-05-04T14:38:50.139Z,5.90
2018-05-04T14:41:19.055Z,5.30
2018-05-04T14:43:47.071Z,5.63
2018-05-04T14:46:17.066Z,5.27
2018-05-04T14:48:45.083Z,5.70
2018-05-04T14:51:15.007Z,5.83
2018-05-04T14:53:43.059Z,6.20
2018-05-04T14:56:11.227Z,6.93
2018-05-04T14:58:40.451Z,6.60
2018-05-04T15:01:09.207Z,5.73
2018-05-04T15:03:37.979Z,5.77
2018-05-04T15:06:06.039Z,6.10
2018-05-04T15:08:35.011Z,5.60
2018-05-04T15:11:05.115Z,5.90
2018-05-04T15:13:35.831Z,7.67
2018-05-04T15:16:03.921Z,6.10
2018-05-04T15:18:36.499Z,6.80
2018-05-04T15:21:06.384Z,5.40
2018-05-04T15:23:36.306Z,5.67
2018-05-04T15:26:07.903Z,6.43
2018-05-04T15:28:36.931Z,8.30
2018-05-04T15:31:05.699Z,5.83
2018-05-04T15:33:34.675Z,5.70
2018-05-04T15:36:03.591Z,6.20
2018-05-04T15:38:32.071Z,5.80
2018-05-04T15:41:01.039Z,6.20
2018-05-04T15:43:31.052Z,5.73
2018-05-04T15:45:59.992Z,5.57
2018-05-04T15:48:34.670Z,5.23
2018-05-04T15:51:09.143Z,6.13
2018-05-04T15:53:37.150Z,5.93
2018-05-04T15:56:22.008Z,6.87
2018-05-04T15:58:51.928Z,5.93
2018-05-04T16:01:23.083Z,6.90
2018-05-04T16:03:51.107Z,6.10
2018-05-04T16:06:19.118Z,5.90
2018-05-04T16:08:47.126Z,5.73
2018-05-04T16:11:27.575Z,6.07
2018-05-04T16:14:12.067Z,5.10
2018-05-04T16:16:40.087Z,5.40
2018-05-04T16:19:08.090Z,5.37
2018-05-04T16:21:37.772Z,5.97
2018-05-04T16:24:05.783Z,5.67
2018-05-04T16:26:34.678Z,5.40
2018-05-04T16:29:07.802Z,5.60
2018-05-04T16:31:36.490Z,5.80
2018-05-04T16:34:04.494Z,5.83
2018-05-04T16:36:32.526Z,5.50
2018-05-04T16:39:07.791Z,5.80
2018-05-04T16:41:38.940Z,5.10
2018-05-04T16:44:14.314Z,5.10
2018-05-04T16:46:49.774Z,4.97
2018-05-04T16:49:24.536Z,5.23
2018-05-04T16:51:52.548Z,4.60
2018-05-04T16:54:31.122Z,5.80
2018-05-04T16:57:01.130Z,5.00
2018-05-04T16:59:41.453Z,4.93
2018-05-04T17:02:09.474Z,4.90
2018-05-04T17:04:38.430Z,5.17
2018-05-04T17:07:09.830Z,5.30
2018-05-04T17:09:41.100Z,4.93
2018-05-04T17:12:13.510Z,4.60
2018-05-04T17:14:48.650Z,5.40
2018-05-04T17:17:17.649Z,5.10
2018-05-04T17:19:46.549Z,5.33
2018-05-04T17:22:14.572Z,5.10
2018-05-04T17:24:42.574Z,4.57
2018-05-04T17:27:12.580Z,4.93
2018-05-04T17:29:45.262Z,4.13
2018-05-04T17:32:23.642Z,4.77
2018-05-04T17:34:52.198Z,4.40
2018-05-04T17:37:20.978Z,4.33
2018-05-04T17:39:53.590Z,4.53
2018-05-04T17:42:35.262Z,4.40
2018-05-04T17:45:10.942Z,4.60
2018-05-04T17:47:49.869Z,4.40
2018-05-04T17:50:20.038Z,4.40
2018-05-04T17:52:48.913Z,3.90
2018-05-04T17:55:18.557Z,4.50
2018-05-04T17:57:47.501Z,3.80
2018-05-04T18:00:17.514Z,4.63
2018-05-04T18:02:46.514Z,3.90
2018-05-04T18:05:26.329Z,4.57
2018-05-04T18:07:54.339Z,4.90
2018-05-04T18:10:23.313Z,4.43
2018-05-04T18:12:55.990Z,3.67
2018-05-04T18:15:24.981Z,3.60
2018-05-04T18:17:54.050Z,3.73
2018-05-04T18:20:22.070Z,3.30
2018-05-04T18:22:51.987Z,3.37
2018-05-04T18:25:19.993Z,3.23
2018-05-04T18:27:49.954Z,2.70
2018-05-04T18:30:17.966Z,2.70
2018-05-04T18:32:46.020Z,3.50
2018-05-04T18:35:14.986Z,2.80
2018-05-04T18:37:46.414Z,3.20
2018-05-04T18:40:14.442Z,3.00
2018-05-04T18:42:44.216Z,4.20
2018-05-04T18:45:12.230Z,2.53
2018-05-04T18:47:43.022Z,2.40
2018-05-04T18:50:12.938Z,2.20
2018-05-04T18:52:51.857Z,2.20
2018-05-04T18:55:23.221Z,2.50
2018-05-04T18:57:53.942Z,2.70
2018-05-04T19:00:22.858Z,2.00
2018-05-04T19:03:07.500Z,2.90
2018-05-04T19:05:42.022Z,2.93
2018-05-04T19:08:19.138Z,2.20
2018-05-04T19:10:50.682Z,2.40
2018-05-04T19:13:19.641Z,2.63
2018-05-04T19:15:47.674Z,2.40
2018-05-04T19:18:15.698Z,2.70
2018-05-04T19:20:46.398Z,2.53
2018-05-04T19:23:15.340Z,2.40
2018-05-04T19:25:43.358Z,2.60
2018-05-04T19:28:15.953Z,2.80
2018-05-04T19:30:48.187Z,2.37
2018-05-04T19:33:16.237Z,2.50
2018-05-04T19:35:45.227Z,2.40
2018-05-04T19:38:25.625Z,2.40
2018-05-04T19:40:54.527Z,2.37
2018-05-04T19:43:24.550Z,2.83
2018-05-04T19:45:52.586Z,2.80
2018-05-04T19:48:21.538Z,2.63
2018-05-04T19:50:54.022Z,2.23
2018-05-04T19:53:22.973Z,3.00
2018-05-04T19:55:51.014Z,2.30
2018-05-04T19:58:19.069Z,3.03
2018-05-04T20:00:47.090Z,2.60
2018-05-04T20:03:18.642Z,2.70
2018-05-04T20:05:46.682Z,2.67
2018-05-04T20:08:19.262Z,3.00
2018-05-04T20:10:48.205Z,2.70
2018-05-04T20:13:17.026Z,3.50
2018-05-04T20:15:50.366Z,2.80
2018-05-04T20:18:19.341Z,3.03
2018-05-04T20:20:47.378Z,2.93
2018-05-04T20:23:17.389Z,2.70
2018-05-04T20:25:52.981Z,3.00
2018-05-04T20:28:26.682Z,2.90
2018-05-04T20:30:55.674Z,3.90
2018-05-04T20:33:28.558Z,2.70
2018-05-04T20:36:00.389Z,3.00
2018-05-04T20:38:28.550Z,3.10
2018-05-04T20:41:00.814Z,2.80
2018-05-04T20:43:29.805Z,4.30
2018-05-04T20:45:59.725Z,3.00
2018-05-04T20:48:27.785Z,2.93
2018-05-04T20:50:56.727Z,2.63
2018-05-04T20:53:24.765Z,3.00
2018-05-04T20:55:54.711Z,3.17
2018-05-04T20:58:29.181Z,3.20
2018-05-04T21:00:57.197Z,3.50
2018-05-04T21:03:33.641Z,5.10
2018-05-04T21:06:01.673Z,3.27
2018-05-04T21:08:32.371Z,2.80
2018-05-04T21:11:01.318Z,3.50
2018-05-04T21:13:29.333Z,3.10
2018-05-04T21:15:57.357Z,3.30
2018-05-04T21:18:30.965Z,3.30
2018-05-04T21:21:01.762Z,3.30
2018-05-04T21:23:32.473Z,4.50
2018-05-04T21:26:00.533Z,3.20
2018-05-04T21:28:28.577Z,3.30
2018-05-04T21:31:01.197Z,3.80
2018-05-04T21:33:29.221Z,2.80
2018-05-04T21:35:58.308Z,2.97
2018-05-04T21:38:27.251Z,3.30
2018-05-04T21:40:55.337Z,3.07
2018-05-04T21:43:31.462Z,2.80
2018-05-04T21:45:59.577Z,2.70
2018-05-04T21:48:27.913Z,3.20
2018-05-04T21:51:01.393Z,3.10
2018-05-04T21:53:41.673Z,3.10
2018-05-04T21:56:16.045Z,3.20
2018-05-04T21:58:51.165Z,2.80
2018-05-04T22:01:23.429Z,3.33
2018-05-04T22:03:54.429Z,3.80
2018-05-04T22:06:27.210Z,2.70
2018-05-04T22:08:57.130Z,3.63
2018-05-04T22:11:25.477Z,2.90
2018-05-04T22:13:57.873Z,3.23
2018-05-04T22:16:26.273Z,2.90
2018-05-04T22:18:55.400Z,3.13
2018-05-04T22:21:42.268Z,3.23
2018-05-04T22:24:16.164Z,2.60
2018-05-04T22:26:45.772Z,2.60
2018-05-04T22:29:20.984Z,2.90
2018-05-04T22:31:49.245Z,3.67
2018-05-04T22:34:17.484Z,3.50
2018-05-04T22:36:45.532Z,3.37
2018-05-04T22:39:15.492Z,3.00
2018-05-04T22:41:47.116Z,3.30
2018-05-04T22:47:04.168Z,2.87
2018-05-04T22:49:47.384Z,2.40
2018-05-04T22:52:30.504Z,2.90
2018-05-04T22:55:05.613Z,3.33
2018-05-04T22:57:52.232Z,2.90
2018-05-04T23:00:23.840Z,3.10
2018-05-04T23:02:53.372Z,3.67
2018-05-04T23:05:32.948Z,2.30
2018-05-04T23:08:08.092Z,3.20
2018-05-04T23:10:56.324Z,3.10
2018-05-04T23:13:36.700Z,3.10
2018-05-04T23:16:22.624Z,3.10
2018-05-04T23:19:00.308Z,3.33
2018-05-04T23:21:44.652Z,3.00
2018-05-04T23:24:18.504Z,2.93
2018-05-04T23:26:46.908Z,3.13
2018-05-04T23:29:15.085Z,3.40
2018-05-04T23:31:49.349Z,3.00
2018-05-04T23:34:19.189Z,3.00
2018-05-04T23:36:48.092Z,2.93
2018-05-04T23:39:16.113Z,3.33
2018-05-04T23:41:50.913Z,3.10
2018-05-04T23:44:27.544Z,3.90
2018-05-04T23:46:59.624Z,3.20
2018-05-04T23:49:36.024Z,2.63
2018-05-04T23:52:04.940Z,3.27
2018-05-04T23:54:35.785Z,3.53
2018-05-04T23:57:11.201Z,3.60
2018-05-04T23:59:47.608Z,3.00
